Time;durP1;ratioP1;P1;durP2;ratioP2;P2;SDS_P1;SDS_P2;PMS_P1;PMS_P2;Temp;Humidity;BMP_temperature;BMP_pressure;BME280_temperature;BME280_humidity;BME280_pressure;Samples;Min_cycle;Max_cycle;Signal;HPM_P1;HPM_P2
2021/07/07 00:01:13;;;;;;;;;;;16.10;99.90;;;;;;5018282;28;19920;-91
2021/07/07 00:03:38;;;;;;;;;;;16.10;99.90;;;;;;5035079;28;19948;-91
2021/07/07 00:06:06;;;;;;;;;;;16.00;99.90;;;;;;5034637;28;20414;-91
2021/07/07 00:08:40;;;;;;;;;;;16.00;99.90;;;;;;5036192;28;19928;-91
2021/07/07 00:11:06;;;;;;;;;;;16.00;99.90;;;;;;5031028;28;20368;-89
2021/07/07 00:13:34;;;;;;;;;;;15.90;99.90;;;;;;5031643;28;20036;-90
2021/07/07 00:16:10;;;;;;;;;;;15.90;99.90;;;;;;5043814;28;19925;-90
2021/07/07 00:18:37;;;;;;;;;;;15.90;99.90;;;;;;5018659;28;20480;-91
2021/07/07 00:21:02;;;;;;;;;;;15.90;99.90;;;;;;5035346;28;20024;-90
2021/07/07 00:23:29;;;;;;;;;;;15.90;99.90;;;;;;5051376;28;19921;-91
2021/07/07 00:25:55;;;;;;;;;;;15.90;99.90;;;;;;5034958;28;19959;-91
2021/07/07 00:28:21;;;;;;;;;;;15.80;99.90;;;;;;5018469;28;20409;-90
2021/07/07 00:30:48;;;;;;;;;;;15.80;99.90;;;;;;5018059;28;20334;-90
2021/07/07 00:33:14;;;;;;;;;;;15.80;99.90;;;;;;5018738;28;19924;-90
2021/07/07 00:35:40;;;;;;;;;;;15.80;99.90;;;;;;5034932;28;19921;-90
2021/07/07 00:38:08;;;;;;;;;;;15.70;99.90;;;;;;5018210;28;20008;-90
2021/07/07 00:40:34;;;;;;;;;;;15.70;99.90;;;;;;5018648;28;19924;-90
2021/07/07 00:43:00;;;;;;;;;;;15.70;99.90;;;;;;5034525;28;19929;-90
2021/07/07 00:45:26;;;;;;;;;;;15.70;99.90;;;;;;5038073;28;19927;-89
2021/07/07 00:47:51;;;;;;;;;;;15.70;99.90;;;;;;5037086;28;19928;-89
2021/07/07 00:50:17;;;;;;;;;;;15.70;99.90;;;;;;5032910;28;19932;-89
2021/07/07 00:52:43;;;;;;;;;;;15.70;99.90;;;;;;4999699;28;19921;-89
2021/07/07 00:55:10;;;;;;;;;;;15.60;99.90;;;;;;5014803;28;20008;-90
2021/07/07 00:57:36;;;;;;;;;;;15.60;99.90;;;;;;5014971;28;19950;-89
2021/07/07 01:00:04;;;;;;;;;;;15.50;99.90;;;;;;5018133;28;19971;-90
2021/07/07 01:02:32;;;;;;;;;;;15.50;99.90;;;;;;5054000;28;19932;-89
2021/07/07 01:04:58;;;;;;;;;;;15.40;99.90;;;;;;5037776;28;19932;-90
2021/07/07 01:07:23;;;;;;;;;;;15.30;99.90;;;;;;5053992;28;19921;-89
2021/07/07 01:09:49;;;;;;;;;;;15.30;99.90;;;;;;5037998;28;19943;-89
2021/07/07 01:12:16;;;;;;;;;;;15.30;99.90;;;;;;5037911;28;20352;-88
2021/07/07 01:14:41;;;;;;;;;;;15.30;99.90;;;;;;5030299;28;20019;-89
2021/07/07 01:17:07;;;;;;;;;;;15.20;99.90;;;;;;5005970;28;19921;-90
2021/07/07 01:19:34;;;;;;;;;;;15.20;99.90;;;;;;5014568;28;20292;-89
2021/07/07 01:21:59;;;;;;;;;;;15.20;99.90;;;;;;4998496;28;19929;-89
2021/07/07 01:24:25;;;;;;;;;;;15.10;99.90;;;;;;5014261;28;20361;-89
2021/07/07 01:26:51;;;;;;;;;;;15.20;99.90;;;;;;5008447;28;19928;-90
2021/07/07 01:29:17;;;;;;;;;;;15.10;99.90;;;;;;5037563;28;19924;-89
2021/07/07 01:31:43;;;;;;;;;;;15.10;99.90;;;;;;5054100;28;20378;-90
2021/07/07 01:34:09;;;;;;;;;;;15.10;99.90;;;;;;5037276;28;19928;-89
2021/07/07 01:36:35;;;;;;;;;;;15.10;99.90;;;;;;5053857;28;19932;-90
2021/07/07 01:39:03;;;;;;;;;;;15.10;99.90;;;;;;5054092;28;19931;-89
2021/07/07 01:41:29;;;;;;;;;;;15.10;99.90;;;;;;5053894;28;19921;-89
2021/07/07 01:43:55;;;;;;;;;;;15.10;99.90;;;;;;5031096;28;19925;-90
2021/07/07 01:46:20;;;;;;;;;;;15.10;99.90;;;;;;5066891;28;20436;-90
2021/07/07 01:48:46;;;;;;;;;;;15.00;99.90;;;;;;5033533;28;20430;-89
2021/07/07 01:51:12;;;;;;;;;;;15.10;99.90;;;;;;5028976;28;20066;-89
2021/07/07 01:53:38;;;;;;;;;;;15.00;99.90;;;;;;5014002;28;19965;-89
2021/07/07 01:56:04;;;;;;;;;;;15.10;99.90;;;;;;4997749;28;19928;-89
2021/07/07 01:58:29;;;;;;;;;;;15.20;99.90;;;;;;5029460;28;19931;-90
2021/07/07 02:00:55;;;;;;;;;;;15.20;99.90;;;;;;5037081;28;20387;-90
2021/07/07 02:03:21;;;;;;;;;;;15.10;99.90;;;;;;5053404;28;19920;-89
2021/07/07 02:05:47;;;;;;;;;;;15.10;99.90;;;;;;5053533;28;19920;-89
2021/07/07 02:08:13;;;;;;;;;;;15.10;99.90;;;;;;5023600;28;19928;-89
2021/07/07 02:10:39;;;;;;;;;;;15.10;99.90;;;;;;5018413;28;19928;-90
2021/07/07 02:13:08;;;;;;;;;;;15.00;99.90;;;;;;5037463;28;19928;-90
2021/07/07 02:15:35;;;;;;;;;;;15.00;99.90;;;;;;5007233;28;19921;-90
2021/07/07 02:18:01;;;;;;;;;;;15.00;99.90;;;;;;5017466;28;19925;-89
2021/07/07 02:20:29;;;;;;;;;;;15.00;99.90;;;;;;5001800;28;20027;-89
2021/07/07 02:22:56;;;;;;;;;;;14.90;99.90;;;;;;5057150;28;19957;-89
2021/07/07 02:25:26;;;;;;;;;;;14.90;99.90;;;;;;5040626;28;19920;-89
2021/07/07 02:27:54;;;;;;;;;;;14.90;99.90;;;;;;5022272;28;19925;-90
2021/07/07 02:30:21;;;;;;;;;;;14.90;99.90;;;;;;5017508;28;19968;-89
2021/07/07 02:32:47;;;;;;;;;;;14.80;99.90;;;;;;5033349;28;20720;-89
2021/07/07 02:35:24;;;;;;;;;;;14.80;99.90;;;;;;5017084;28;20016;-88
2021/07/07 02:37:53;;;;;;;;;;;14.80;99.90;;;;;;5033635;28;19925;-89
2021/07/07 02:40:20;;;;;;;;;;;14.80;99.90;;;;;;5016900;28;20357;-89
2021/07/07 02:42:46;;;;;;;;;;;14.80;99.90;;;;;;5017175;28;19953;-90
2021/07/07 02:45:13;;;;;;;;;;;14.80;99.90;;;;;;5028787;28;19975;-89
2021/07/07 02:47:39;;;;;;;;;;;14.80;99.90;;;;;;5002681;28;20340;-89
2021/07/07 02:50:06;;;;;;;;;;;14.80;99.90;;;;;;5049812;28;19932;-89
2021/07/07 02:52:32;;;;;;;;;;;14.80;99.90;;;;;;5016490;28;19968;-89
2021/07/07 02:54:58;;;;;;;;;;;14.80;99.90;;;;;;5033389;28;20449;-89
2021/07/07 02:57:24;;;;;;;;;;;14.80;99.90;;;;;;5031889;28;20375;-89
2021/07/07 02:59:49;;;;;;;;;;;14.80;99.90;;;;;;5036244;28;19968;-90
2021/07/07 03:02:15;;;;;;;;;;;14.80;99.90;;;;;;5052630;28;19931;-89
2021/07/07 03:04:41;;;;;;;;;;;14.80;99.90;;;;;;5052911;28;19917;-89
2021/07/07 03:07:07;;;;;;;;;;;14.80;99.90;;;;;;5052654;28;20019;-89
2021/07/07 03:09:33;;;;;;;;;;;14.80;99.90;;;;;;5019539;28;19946;-89
2021/07/07 03:11:59;;;;;;;;;;;14.70;99.90;;;;;;5052490;28;19972;-89
2021/07/07 03:14:24;;;;;;;;;;;14.70;99.90;;;;;;5032894;28;19960;-89
2021/07/07 03:16:50;;;;;;;;;;;14.70;99.90;;;;;;5016599;28;20015;-89
2021/07/07 03:19:16;;;;;;;;;;;14.70;99.90;;;;;;5033078;28;19956;-90
2021/07/07 03:21:43;;;;;;;;;;;14.70;99.90;;;;;;5031948;28;19925;-88
2021/07/07 03:24:10;;;;;;;;;;;14.70;99.90;;;;;;5032596;28;19944;-88
2021/07/07 03:26:36;;;;;;;;;;;14.60;99.90;;;;;;5045554;28;20375;-90
2021/07/07 03:29:03;;;;;;;;;;;14.60;99.90;;;;;;5052828;28;19920;-91
2021/07/07 03:31:29;;;;;;;;;;;14.50;99.90;;;;;;5019329;28;19943;-89
2021/07/07 03:33:54;;;;;;;;;;;14.50;99.90;;;;;;5019590;28;20474;-89
2021/07/07 03:36:20;;;;;;;;;;;14.50;99.90;;;;;;5018904;28;20023;-89
2021/07/07 03:38:47;;;;;;;;;;;14.50;99.90;;;;;;5052977;28;20449;-90
2021/07/07 03:41:12;;;;;;;;;;;14.50;99.90;;;;;;5050510;28;20032;-88
2021/07/07 03:43:39;;;;;;;;;;;14.40;99.90;;;;;;5027204;28;20438;-89
2021/07/07 03:46:04;;;;;;;;;;;14.40;99.90;;;;;;5039223;28;20012;-90
2021/07/07 03:48:30;;;;;;;;;;;14.40;99.90;;;;;;5062234;28;20376;-88
2021/07/07 03:50:56;;;;;;;;;;;14.40;99.90;;;;;;5052682;28;19925;-91
2021/07/07 03:53:22;;;;;;;;;;;14.30;99.90;;;;;;5022489;28;19925;-90
2021/07/07 03:55:48;;;;;;;;;;;14.30;99.90;;;;;;5022624;28;19921;-89
2021/07/07 03:58:14;;;;;;;;;;;14.30;99.90;;;;;;5039008;28;20398;-90
2021/07/07 04:00:40;;;;;;;;;;;14.30;99.90;;;;;;5039006;28;19928;-89
2021/07/07 04:03:07;;;;;;;;;;;14.40;99.90;;;;;;5055352;28;20017;-89
2021/07/07 04:05:32;;;;;;;;;;;14.40;99.90;;;;;;5071872;28;19971;-90
2021/07/07 04:07:58;;;;;;;;;;;14.40;99.90;;;;;;5055407;28;19925;-90
2021/07/07 04:10:24;;;;;;;;;;;14.40;99.90;;;;;;5054035;28;19924;-89
2021/07/07 04:12:50;;;;;;;;;;;14.40;99.90;;;;;;5050265;28;19947;-90
2021/07/07 04:15:16;;;;;;;;;;;14.50;99.90;;;;;;5025639;28;20012;-90
2021/07/07 04:17:42;;;;;;;;;;;14.50;99.90;;;;;;5035027;28;19925;-89
2021/07/07 04:20:10;;;;;;;;;;;14.50;99.90;;;;;;5034712;28;19935;-90
2021/07/07 04:22:37;;;;;;;;;;;14.50;99.90;;;;;;5018996;28;19924;-90
2021/07/07 04:25:03;;;;;;;;;;;14.50;99.90;;;;;;5026739;28;19935;-89
2021/07/07 04:27:29;;;;;;;;;;;14.50;99.90;;;;;;5038702;28;19921;-90
2021/07/07 04:29:55;;;;;;;;;;;14.50;99.90;;;;;;5054698;28;19931;-89
2021/07/07 04:32:22;;;;;;;;;;;14.60;99.90;;;;;;5030806;28;19940;-90
2021/07/07 04:34:48;;;;;;;;;;;14.60;99.90;;;;;;5034476;28;19974;-89
2021/07/07 04:37:14;;;;;;;;;;;14.60;99.90;;;;;;5034744;28;20342;-90
2021/07/07 04:39:40;;;;;;;;;;;14.70;99.90;;;;;;5035124;28;19924;-90
2021/07/07 04:42:06;;;;;;;;;;;14.70;99.90;;;;;;5051229;28;19952;-90
2021/07/07 04:44:31;;;;;;;;;;;14.70;99.90;;;;;;5051173;28;19975;-90
2021/07/07 04:46:57;;;;;;;;;;;14.70;99.90;;;;;;5043190;28;20035;-93
2021/07/07 04:49:23;;;;;;;;;;;14.70;99.90;;;;;;5051376;28;19928;-90
2021/07/07 04:51:49;;;;;;;;;;;14.70;99.90;;;;;;5041584;28;19936;-90
2021/07/07 04:54:14;;;;;;;;;;;14.70;99.90;;;;;;5020627;28;19920;-89
2021/07/07 04:56:40;;;;;;;;;;;14.70;99.90;;;;;;5051279;28;19932;-90
2021/07/07 04:59:06;;;;;;;;;;;14.80;99.90;;;;;;5051389;28;19979;-89
2021/07/07 05:01:32;;;;;;;;;;;14.80;99.90;;;;;;5020878;28;19927;-91
2021/07/07 05:03:58;;;;;;;;;;;14.80;99.90;;;;;;5037026;28;19921;-91
2021/07/07 05:06:24;;;;;;;;;;;14.90;99.90;;;;;;5011659;28;19971;-89
2021/07/07 05:08:50;;;;;;;;;;;14.90;99.90;;;;;;4982202;28;20012;-89
2021/07/07 05:11:16;;;;;;;;;;;14.90;99.90;;;;;;5021875;28;20011;-92
2021/07/07 05:13:42;;;;;;;;;;;14.90;99.90;;;;;;5018114;28;19961;-91
2021/07/07 05:16:08;;;;;;;;;;;14.90;99.90;;;;;;5027437;28;19964;-90
2021/07/07 05:18:33;;;;;;;;;;;15.00;99.90;;;;;;4998093;28;19921;-90
2021/07/07 05:20:59;;;;;;;;;;;15.00;99.90;;;;;;4998145;28;19921;-91
2021/07/07 05:23:26;;;;;;;;;;;15.00;99.90;;;;;;4982510;28;19936;-89
2021/07/07 05:25:51;;;;;;;;;;;15.10;99.90;;;;;;5012089;28;19921;-90
2021/07/07 05:28:17;;;;;;;;;;;15.10;99.90;;;;;;5028265;28;20391;-91
2021/07/07 05:30:44;;;;;;;;;;;15.10;99.90;;;;;;5023074;28;20283;-89
2021/07/07 05:33:09;;;;;;;;;;;15.20;99.90;;;;;;5014409;28;19924;-90
2021/07/07 05:35:38;;;;;;;;;;;15.20;99.90;;;;;;5017148;28;19927;-90
2021/07/07 05:38:04;;;;;;;;;;;15.20;99.90;;;;;;5001068;28;19921;-90
2021/07/07 05:40:31;;;;;;;;;;;15.30;99.90;;;;;;5033477;28;20007;-89
2021/07/07 05:42:57;;;;;;;;;;;15.30;99.90;;;;;;5017610;28;20002;-90
2021/07/07 05:45:25;;;;;;;;;;;15.30;99.90;;;;;;5034246;28;19921;-90
2021/07/07 05:47:50;;;;;;;;;;;15.40;99.90;;;;;;5037573;28;20489;-89
2021/07/07 05:50:17;;;;;;;;;;;15.40;99.90;;;;;;5025815;28;19933;-92
2021/07/07 05:52:43;;;;;;;;;;;15.40;99.90;;;;;;5034936;28;19948;-91
2021/07/07 05:55:09;;;;;;;;;;;15.50;99.90;;;;;;5031379;28;20658;-90
2021/07/07 05:57:38;;;;;;;;;;;15.50;99.90;;;;;;5054312;28;19924;-90
2021/07/07 06:00:11;;;;;;;;;;;15.50;99.90;;;;;;5054482;28;20015;-91
2021/07/07 06:02:37;;;;;;;;;;;15.50;99.90;;;;;;5028751;28;19921;-91
2021/07/07 06:05:04;;;;;;;;;;;15.60;99.90;;;;;;5018348;28;19943;-90
2021/07/07 06:07:30;;;;;;;;;;;15.70;99.90;;;;;;5017959;28;19921;-90
2021/07/07 06:09:55;;;;;;;;;;;15.70;99.90;;;;;;5001697;28;19932;-90
2021/07/07 06:12:42;;;;;;;;;;;15.70;99.90;;;;;;5031723;28;19947;-90
2021/07/07 06:15:36;;;;;;;;;;;15.80;99.90;;;;;;5034242;28;20354;-90
2021/07/07 06:18:12;;;;;;;;;;;15.80;99.90;;;;;;5064566;28;20391;-90
2021/07/07 06:20:38;;;;;;;;;;;15.80;99.90;;;;;;5033872;28;19921;-91
2021/07/07 06:23:04;;;;;;;;;;;15.80;99.90;;;;;;5017124;28;19928;-90
2021/07/07 06:25:30;;;;;;;;;;;15.90;99.90;;;;;;5018432;28;19929;-91
2021/07/07 06:27:56;;;;;;;;;;;16.00;99.90;;;;;;5042350;28;19936;-92
2021/07/07 06:30:25;;;;;;;;;;;16.00;99.90;;;;;;5045949;28;19925;-90
2021/07/07 06:32:51;;;;;;;;;;;16.10;99.90;;;;;;5037681;28;20007;-90
2021/07/07 06:35:18;;;;;;;;;;;16.20;99.90;;;;;;5037311;28;19920;-91
2021/07/07 06:37:44;;;;;;;;;;;16.20;99.90;;;;;;5027286;28;19979;-90
2021/07/07 06:40:10;;;;;;;;;;;16.30;99.90;;;;;;5017514;28;19931;-92
2021/07/07 06:42:36;;;;;;;;;;;16.30;99.90;;;;;;5042626;28;19935;-90
2021/07/07 06:45:04;;;;;;;;;;;16.30;99.90;;;;;;5036639;28;19932;-91
2021/07/07 06:47:29;;;;;;;;;;;16.40;99.90;;;;;;5045787;28;20386;-91
2021/07/07 06:49:55;;;;;;;;;;;16.50;99.90;;;;;;5017095;28;19925;-91
2021/07/07 06:52:21;;;;;;;;;;;16.50;99.90;;;;;;5033714;28;19921;-91
2021/07/07 06:54:48;;;;;;;;;;;16.50;99.90;;;;;;5047432;28;20112;-91
2021/07/07 06:57:14;;;;;;;;;;;16.50;99.90;;;;;;5053020;28;20295;-90
2021/07/07 06:59:40;;;;;;;;;;;16.60;99.90;;;;;;5044407;28;19928;-91
2021/07/07 07:02:05;;;;;;;;;;;16.70;99.90;;;;;;5033602;28;19925;-91
2021/07/07 07:04:32;;;;;;;;;;;16.80;99.90;;;;;;5055170;28;20303;-91
2021/07/07 07:06:58;;;;;;;;;;;16.90;99.90;;;;;;5019157;28;19931;-91
2021/07/07 07:09:24;;;;;;;;;;;16.90;99.90;;;;;;5037151;28;20008;-91
2021/07/07 07:11:50;;;;;;;;;;;17.00;99.90;;;;;;5035779;28;20386;-90
2021/07/07 07:14:16;;;;;;;;;;;17.00;99.90;;;;;;5024865;28;19925;-90
2021/07/07 07:16:45;;;;;;;;;;;17.00;99.90;;;;;;5036056;28;19927;-90
2021/07/07 07:19:11;;;;;;;;;;;17.00;99.90;;;;;;5036321;28;19925;-90
2021/07/07 07:21:37;;;;;;;;;;;17.10;99.90;;;;;;5000326;28;19928;-88
2021/07/07 07:24:03;;;;;;;;;;;17.10;99.90;;;;;;5032598;28;20015;-89
2021/07/07 07:26:30;;;;;;;;;;;17.20;99.90;;;;;;5052191;28;19924;-90
2021/07/07 07:28:56;;;;;;;;;;;17.20;99.90;;;;;;5041662;28;19925;-89
2021/07/07 07:31:22;;;;;;;;;;;17.30;99.90;;;;;;5032061;28;19975;-88
2021/07/07 07:33:49;;;;;;;;;;;17.30;99.90;;;;;;5007362;28;19929;-89
2021/07/07 07:36:16;;;;;;;;;;;17.40;99.90;;;;;;5049069;28;20391;-90
2021/07/07 07:38:45;;;;;;;;;;;17.40;99.90;;;;;;5049725;28;19925;-90
2021/07/07 07:41:11;;;;;;;;;;;17.40;99.90;;;;;;5052151;28;19921;-89
2021/07/07 07:43:37;;;;;;;;;;;17.40;99.90;;;;;;5050999;28;20444;-88
2021/07/07 07:46:03;;;;;;;;;;;17.40;99.90;;;;;;5051677;28;19928;-87
2021/07/07 07:48:29;;;;;;;;;;;17.50;99.90;;;;;;5052354;28;19927;-88
2021/07/07 07:50:56;;;;;;;;;;;17.50;99.90;;;;;;5035352;28;20818;-88
2021/07/07 07:53:21;;;;;;;;;;;17.50;99.90;;;;;;5020074;28;19925;-90
2021/07/07 07:55:47;;;;;;;;;;;17.50;99.90;;;;;;4999360;28;19925;-88
2021/07/07 07:58:17;;;;;;;;;;;17.50;99.90;;;;;;5017430;28;19925;-89
2021/07/07 08:00:44;;;;;;;;;;;17.60;99.90;;;;;;5014961;28;19925;-88
2021/07/07 08:03:11;;;;;;;;;;;17.60;99.90;;;;;;5015019;28;19925;-89
2021/07/07 08:05:37;;;;;;;;;;;17.60;99.90;;;;;;5014756;28;19928;-89
2021/07/07 08:08:03;;;;;;;;;;;17.70;99.90;;;;;;4998734;28;19925;-88
2021/07/07 08:10:29;;;;;;;;;;;17.80;99.90;;;;;;5015219;28;20019;-89
2021/07/07 08:12:55;;;;;;;;;;;17.80;99.90;;;;;;5003332;28;20026;-89
2021/07/07 08:15:21;;;;;;;;;;;17.90;99.90;;;;;;5034143;28;20368;-89
2021/07/07 08:17:47;;;;;;;;;;;18.00;99.90;;;;;;5035041;28;19924;-88
2021/07/07 08:20:13;;;;;;;;;;;18.00;99.90;;;;;;5001770;28;19921;-89
2021/07/07 08:22:39;;;;;;;;;;;18.00;99.90;;;;;;5018205;28;20276;-87
2021/07/07 08:25:06;;;;;;;;;;;18.00;99.90;;;;;;5024609;28;19928;-89
2021/07/07 08:27:32;;;;;;;;;;;18.10;99.90;;;;;;5010126;28;20455;-87
2021/07/07 08:29:58;;;;;;;;;;;18.20;99.90;;;;;;5018063;28;19925;-88
2021/07/07 08:32:23;;;;;;;;;;;18.30;99.90;;;;;;5000796;28;20371;-88
2021/07/07 08:34:49;;;;;;;;;;;18.30;99.90;;;;;;5030594;28;19925;-89
2021/07/07 08:37:15;;;;;;;;;;;18.40;99.90;;;;;;5013019;28;20008;-88
2021/07/07 08:39:41;;;;;;;;;;;18.50;99.90;;;;;;5012777;28;19925;-87
2021/07/07 08:42:07;;;;;;;;;;;18.50;99.90;;;;;;5030248;28;19927;-88
2021/07/07 08:44:33;;;;;;;;;;;18.60;99.90;;;;;;5037249;28;19924;-89
2021/07/07 08:47:00;;;;;;;;;;;18.60;99.90;;;;;;5034337;28;20532;-88
2021/07/07 08:49:26;;;;;;;;;;;18.60;99.90;;;;;;5075193;28;19924;-87
2021/07/07 08:51:52;;;;;;;;;;;18.60;99.90;;;;;;5062781;28;19936;-89
2021/07/07 08:54:19;;;;;;;;;;;18.50;99.90;;;;;;5042627;28;19983;-89
2021/07/07 08:56:45;;;;;;;;;;;18.50;99.90;;;;;;5045089;28;19920;-88
2021/07/07 08:59:13;;;;;;;;;;;18.60;99.90;;;;;;5041304;28;19924;-88
2021/07/07 09:01:57;;;;;;;;;;;18.70;99.90;;;;;;5022692;28;19920;-88
2021/07/07 09:04:28;;;;;;;;;;;18.70;99.90;;;;;;5075935;28;19925;-87
2021/07/07 09:07:00;;;;;;;;;;;18.80;99.90;;;;;;5041475;28;20372;-89
2021/07/07 09:09:39;;;;;;;;;;;18.80;99.90;;;;;;5058095;28;19924;-86
2021/07/07 09:12:15;;;;;;;;;;;18.80;99.90;;;;;;5043704;28;20003;-89
2021/07/07 09:14:43;;;;;;;;;;;18.80;99.90;;;;;;5048936;28;19924;-88
2021/07/07 09:17:13;;;;;;;;;;;18.80;99.90;;;;;;5040104;28;19921;-89
2021/07/07 09:19:39;;;;;;;;;;;18.90;99.90;;;;;;5041156;28;19920;-89
2021/07/07 09:22:07;;;;;;;;;;;18.90;99.90;;;;;;5041271;28;19959;-88
2021/07/07 09:25:00;;;;;;;;;;;18.90;99.90;;;;;;5032672;28;20007;-88
2021/07/07 09:27:46;;;;;;;;;;;18.90;99.90;;;;;;5032512;28;20419;-87
2021/07/07 09:30:31;;;;;;;;;;;19.00;99.90;;;;;;5045049;28;19928;-88
2021/07/07 09:33:18;;;;;;;;;;;19.00;99.90;;;;;;5027746;28;20047;-88
2021/07/07 09:35:45;;;;;;;;;;;19.00;99.90;;;;;;5043713;28;19925;-88
2021/07/07 09:38:11;;;;;;;;;;;19.00;99.90;;;;;;5040410;28;19929;-86
2021/07/07 09:40:42;;;;;;;;;;;19.10;99.90;;;;;;5041971;28;19970;-88
2021/07/07 09:43:29;;;;;;;;;;;19.10;99.90;;;;;;5030555;28;19920;-89
2021/07/07 09:45:54;;;;;;;;;;;19.20;99.90;;;;;;5031764;28;19921;-88
2021/07/07 09:48:20;;;;;;;;;;;19.20;99.90;;;;;;5015508;28;20019;-89
2021/07/07 09:50:46;;;;;;;;;;;19.30;99.90;;;;;;5016051;28;20019;-89
2021/07/07 09:53:25;;;;;;;;;;;19.40;99.90;;;;;;5001818;28;19931;-88
2021/07/07 09:55:51;;;;;;;;;;;19.40;99.90;;;;;;5062793;28;19932;-90
2021/07/07 09:58:19;;;;;;;;;;;19.50;99.90;;;;;;5015423;28;19986;-88
2021/07/07 10:00:45;;;;;;;;;;;19.60;99.90;;;;;;5047506;28;19921;-88
2021/07/07 10:03:34;;;;;;;;;;;19.60;99.90;;;;;;5017771;28;19929;-89
2021/07/07 10:06:21;;;;;;;;;;;19.60;99.90;;;;;;5020990;28;19921;-87
2021/07/07 10:09:07;;;;;;;;;;;19.60;99.90;;;;;;5035435;28;20245;-88
2021/07/07 10:11:34;;;;;;;;;;;19.70;99.90;;;;;;5048329;28;20707;-89
2021/07/07 10:14:01;;;;;;;;;;;19.80;99.90;;;;;;5015016;28;19940;-87
2021/07/07 10:16:32;;;;;;;;;;;19.80;99.90;;;;;;5029865;28;19924;-88
2021/07/07 10:19:19;;;;;;;;;;;19.90;99.90;;;;;;5048593;28;19947;-86
2021/07/07 10:21:45;;;;;;;;;;;19.90;99.90;;;;;;5032029;28;19925;-88
2021/07/07 10:24:12;;;;;;;;;;;19.80;99.90;;;;;;5034555;28;19924;-88
2021/07/07 10:26:39;;;;;;;;;;;19.90;99.90;;;;;;5032641;28;19924;-88
2021/07/07 10:29:06;;;;;;;;;;;19.90;99.90;;;;;;5066454;28;19925;-88
2021/07/07 10:31:50;;;;;;;;;;;19.90;99.90;;;;;;5034458;28;19971;-88
2021/07/07 10:34:18;;;;;;;;;;;20.00;99.90;;;;;;5048657;28;19929;-88
2021/07/07 10:36:44;;;;;;;;;;;20.00;99.90;;;;;;5004887;28;20349;-88
2021/07/07 10:39:11;;;;;;;;;;;20.00;99.90;;;;;;5017250;28;19928;-88
2021/07/07 10:41:51;;;;;;;;;;;20.20;99.90;;;;;;5016379;28;20368;-89
2021/07/07 10:44:23;;;;;;;;;;;20.30;99.90;;;;;;5015597;28;19931;-89
2021/07/07 10:46:53;;;;;;;;;;;20.40;99.90;;;;;;5038257;28;19925;-89
2021/07/07 10:49:23;;;;;;;;;;;20.50;99.90;;;;;;5035327;28;20019;-88
2021/07/07 10:51:50;;;;;;;;;;;20.50;99.90;;;;;;5034738;28;19986;-88
2021/07/07 10:54:26;;;;;;;;;;;20.50;99.90;;;;;;5050998;28;20035;-87
2021/07/07 10:56:52;;;;;;;;;;;20.60;99.90;;;;;;5018804;28;19921;-88
2021/07/07 10:59:34;;;;;;;;;;;20.70;99.90;;;;;;5012066;28;19925;-88
2021/07/07 11:02:08;;;;;;;;;;;20.80;99.90;;;;;;5015584;28;19928;-87
2021/07/07 11:04:38;;;;;;;;;;;20.90;99.90;;;;;;5033108;28;19962;-88
2021/07/07 11:07:22;;;;;;;;;;;21.00;99.90;;;;;;5017427;28;19925;-87
2021/07/07 11:09:53;;;;;;;;;;;21.00;99.90;;;;;;5045225;28;19928;-86
2021/07/07 11:12:19;;;;;;;;;;;21.10;99.90;;;;;;5030852;28;20011;-86
2021/07/07 11:15:18;;;;;;;;;;;21.20;99.90;;;;;;5014573;28;19976;-87
2021/07/07 11:17:48;;;;;;;;;;;21.20;99.90;;;;;;5020117;28;19929;-87
2021/07/07 11:20:23;;;;;;;;;;;21.10;99.90;;;;;;5031328;28;20020;-86
2021/07/07 11:23:01;;;;;;;;;;;21.00;99.90;;;;;;5043944;28;20281;-87
2021/07/07 11:25:27;;;;;;;;;;;21.00;99.90;;;;;;5041336;28;19920;-87
2021/07/07 11:27:54;;;;;;;;;;;20.90;99.90;;;;;;5026373;28;20454;-86
2021/07/07 11:30:20;;;;;;;;;;;20.90;99.90;;;;;;5039474;28;20430;-87
2021/07/07 11:32:47;;;;;;;;;;;21.00;99.90;;;;;;5015628;28;20375;-86
2021/07/07 11:35:14;;;;;;;;;;;20.90;99.90;;;;;;5042172;28;19925;-86
2021/07/07 11:37:40;;;;;;;;;;;20.90;99.90;;;;;;5024985;28;19972;-87
2021/07/07 11:40:19;;;;;;;;;;;21.00;99.90;;;;;;4998533;28;20351;-86
2021/07/07 11:42:55;;;;;;;;;;;21.00;99.90;;;;;;5039966;28;19921;-88
2021/07/07 11:45:23;;;;;;;;;;;21.00;99.90;;;;;;5044436;28;19950;-87
2021/07/07 11:47:57;;;;;;;;;;;21.10;99.90;;;;;;5079240;28;20395;-86
2021/07/07 11:50:23;;;;;;;;;;;21.10;99.90;;;;;;5046204;28;19924;-87
2021/07/07 11:52:52;;;;;;;;;;;21.20;99.90;;;;;;5065522;28;19970;-87
2021/07/07 11:55:17;;;;;;;;;;;21.30;99.90;;;;;;5049501;28;19924;-85
2021/07/07 11:57:43;;;;;;;;;;;21.30;99.90;;;;;;5034072;28;19932;-87
2021/07/07 12:00:09;;;;;;;;;;;21.40;99.90;;;;;;5067318;28;19921;-87
2021/07/07 12:02:41;;;;;;;;;;;21.40;99.90;;;;;;5066786;28;19920;-87
2021/07/07 12:05:07;;;;;;;;;;;21.40;99.90;;;;;;5083310;28;19920;-86
2021/07/07 12:07:32;;;;;;;;;;;21.40;99.90;;;;;;5049988;28;19932;-87
2021/07/07 12:09:58;;;;;;;;;;;21.40;99.90;;;;;;5050079;28;20260;-88
2021/07/07 12:12:28;;;;;;;;;;;21.50;99.90;;;;;;5016512;28;19925;-87
2021/07/07 12:14:53;;;;;;;;;;;21.50;99.90;;;;;;5039975;28;19925;-86
2021/07/07 12:17:19;;;;;;;;;;;21.50;99.90;;;;;;5050172;28;19921;-87
2021/07/07 12:19:45;;;;;;;;;;;21.40;99.90;;;;;;5043785;28;19925;-88
2021/07/07 12:22:10;;;;;;;;;;;21.30;99.90;;;;;;5033196;28;19958;-87
2021/07/07 12:24:42;;;;;;;;;;;21.20;99.90;;;;;;5083947;28;19979;-86
2021/07/07 12:27:15;;;;;;;;;;;21.20;99.90;;;;;;5066486;28;19921;-88
2021/07/07 12:29:42;;;;;;;;;;;21.20;99.90;;;;;;5061235;28;19932;-88
2021/07/07 12:32:11;;;;;;;;;;;21.10;99.90;;;;;;5066599;28;19935;-87
2021/07/07 12:34:39;;;;;;;;;;;21.10;99.90;;;;;;5070113;28;19931;-87
2021/07/07 12:37:11;;;;;;;;;;;21.20;99.90;;;;;;5030835;28;19929;-87
2021/07/07 12:39:40;;;;;;;;;;;21.30;99.90;;;;;;5059935;28;19921;-88
2021/07/07 12:42:14;;;;;;;;;;;21.30;99.90;;;;;;5065392;28;19924;-87
2021/07/07 12:44:40;;;;;;;;;;;21.40;99.90;;;;;;5076825;28;19964;-86
2021/07/07 12:47:09;;;;;;;;;;;21.40;99.90;;;;;;5033404;28;20040;-87
2021/07/07 12:49:51;;;;;;;;;;;21.40;99.90;;;;;;5046382;28;20307;-88
2021/07/07 12:52:29;;;;;;;;;;;21.40;99.90;;;;;;5026410;28;19941;-86
2021/07/07 12:55:12;;;;;;;;;;;21.40;99.90;;;;;;5046274;28;19932;-88
2021/07/07 12:57:53;;;;;;;;;;;21.50;99.90;;;;;;5032513;28;19925;-86
2021/07/07 13:00:36;;;;;;;;;;;21.50;99.90;;;;;;5049001;28;20368;-87
2021/07/07 13:03:03;;;;;;;;;;;21.60;99.90;;;;;;5049147;28;19929;-87
2021/07/07 13:05:32;;;;;;;;;;;21.60;99.90;;;;;;5048758;28;19924;-86
2021/07/07 13:07:58;;;;;;;;;;;21.60;99.90;;;;;;5037958;28;19921;-87
2021/07/07 13:10:27;;;;;;;;;;;21.60;99.90;;;;;;4996276;28;19929;-86
2021/07/07 13:12:53;;;;;;;;;;;21.60;99.90;;;;;;5023611;28;19925;-85
2021/07/07 13:15:19;;;;;;;;;;;21.50;99.90;;;;;;5047195;28;19943;-87
2021/07/07 13:17:57;;;;;;;;;;;21.60;99.90;;;;;;5022236;28;19925;-87
2021/07/07 13:20:23;;;;;;;;;;;21.70;99.90;;;;;;5030091;28;19925;-86
2021/07/07 13:23:02;;;;;;;;;;;21.70;99.90;;;;;;5031623;28;19921;-88
2021/07/07 13:25:27;;;;;;;;;;;21.80;99.90;;;;;;5041844;28;19925;-87
2021/07/07 13:27:53;;;;;;;;;;;21.70;99.90;;;;;;5012927;28;19932;-87
2021/07/07 13:30:26;;;;;;;;;;;21.70;99.90;;;;;;5048729;28;19931;-86
2021/07/07 13:32:51;;;;;;;;;;;21.80;99.90;;;;;;5048795;28;20654;-87
2021/07/07 13:35:17;;;;;;;;;;;21.80;99.90;;;;;;5032355;28;19970;-86
2021/07/07 13:37:44;;;;;;;;;;;21.70;99.90;;;;;;5053615;28;19928;-85
2021/07/07 13:40:14;;;;;;;;;;;21.70;99.90;;;;;;5031387;28;19927;-87
2021/07/07 13:42:42;;;;;;;;;;;21.40;99.90;;;;;;5031883;28;19974;-87
2021/07/07 13:45:09;;;;;;;;;;;21.30;99.90;;;;;;5045680;28;20284;-86
2021/07/07 13:47:35;;;;;;;;;;;21.40;99.90;;;;;;5044507;28;19927;-87
2021/07/07 13:50:03;;;;;;;;;;;21.40;99.90;;;;;;5069188;28;19921;-86
2021/07/07 13:52:29;;;;;;;;;;;21.50;99.90;;;;;;5037486;28;19925;-87
2021/07/07 13:54:55;;;;;;;;;;;21.40;99.90;;;;;;5045913;28;20277;-87
2021/07/07 13:57:21;;;;;;;;;;;21.30;99.90;;;;;;5029259;28;19956;-87
2021/07/07 13:59:47;;;;;;;;;;;21.40;99.90;;;;;;5061818;28;19952;-88
2021/07/07 14:02:13;;;;;;;;;;;21.50;99.90;;;;;;5048400;28;20320;-86
2021/07/07 14:04:38;;;;;;;;;;;21.50;99.90;;;;;;5035115;28;20708;-87
2021/07/07 14:07:05;;;;;;;;;;;21.50;99.90;;;;;;5070784;28;19964;-87
2021/07/07 14:09:31;;;;;;;;;;;21.50;99.90;;;;;;5088094;28;20330;-88
2021/07/07 14:11:57;;;;;;;;;;;21.50;99.90;;;;;;5035334;28;20329;-87
2021/07/07 14:14:23;;;;;;;;;;;21.60;99.90;;;;;;5018616;28;19924;-88
2021/07/07 14:16:54;;;;;;;;;;;21.60;99.90;;;;;;5019484;28;19931;-88
2021/07/07 14:19:19;;;;;;;;;;;21.60;99.90;;;;;;5068510;28;19921;-88
2021/07/07 14:21:45;;;;;;;;;;;21.60;99.90;;;;;;5068635;28;19970;-87